Terminal Aerodrome Forecast
Issued by NWS

Home | Current Version | Previous Version | Text Only | Print | Product List | Glossary On
Versions: 1 2 3 4 5 6 7 8 9 10 11 12
000
FTUS43 KSGF 282324
TAFBBG
TAF
KBBG 282324Z 2900/2924 12003KT P6SM SCT040
     FM290130 00000KT P6SM SKC
     FM291000 00000KT 4SM BR SCT250
     FM291400 12004KT P6SM SCT050=

USA.gov is the U.S. government's official web portal to all federal, state and local government web resources and services.